sim
Sign-in with your pilot id or email,
or register
Callsign
Passwort

Schedule Details

Flight Number: DLH1677 (1)
Departure: Budapest Ferenc Liszt International Airport (LHBP) at 12:35
Arrival: Munich Airport (EDDM) at 13:50
Route: Lufthansa Passenger Schedule. Enter filed route here before submitting Pirep.

Weather Information
Getting current METAR information for LHBP 191600Z 10004KT CAVOK 19/04 Q1020 NOSIG
Getting current METAR information for EDDM 191620Z 05003KT CAVOK 20/12 Q1018 NOSIG

Schedule Frequency

Route Map